createdAt,value
2018-09-27T05:33:23.381Z,736.00
2018-09-27T05:34:23.381Z,740.00
2018-09-27T05:35:23.363Z,768.00
2018-09-27T05:36:23.378Z,860.00
2018-09-27T05:37:23.399Z,896.00
2018-09-27T05:38:23.439Z,856.00
2018-09-27T05:39:23.407Z,836.00
2018-09-27T05:40:23.404Z,896.00
2018-09-27T05:41:23.440Z,992.00
2018-09-27T05:42:23.434Z,956.00
2018-09-27T05:43:23.477Z,972.00
2018-09-27T05:44:23.496Z,932.00
2018-09-27T05:45:23.504Z,944.00
2018-09-27T05:46:23.447Z,936.00
2018-09-27T05:47:23.460Z,1092.00
2018-09-27T05:48:23.513Z,1288.00
2018-09-27T05:49:23.544Z,1312.00
2018-09-27T05:50:23.500Z,1240.00
2018-09-27T05:51:23.561Z,1220.00
2018-09-27T05:52:23.526Z,1180.00
2018-09-27T05:53:23.533Z,1184.00
2018-09-27T05:54:23.557Z,1212.00
2018-09-27T05:55:23.590Z,1260.00
2018-09-27T05:56:23.549Z,1380.00
2018-09-27T05:57:23.604Z,1572.00
2018-09-27T05:58:23.582Z,1712.00
2018-09-27T05:59:23.637Z,1660.00
2018-09-27T06:00:23.577Z,1696.00
2018-09-27T06:01:23.613Z,1740.00
2018-09-27T06:02:23.592Z,1624.00
2018-09-27T06:03:23.677Z,1580.00
2018-09-27T06:04:23.643Z,1724.00
2018-09-27T06:05:23.648Z,1908.00
2018-09-27T06:06:23.681Z,1900.00
2018-09-27T06:07:23.678Z,1748.00
2018-09-27T06:08:23.674Z,1808.00
2018-09-27T06:09:23.680Z,1988.00
2018-09-27T06:10:23.691Z,1968.00
2018-09-27T06:11:23.697Z,1840.00
2018-09-27T06:12:23.732Z,1904.00
2018-09-27T06:13:23.720Z,2116.00
2018-09-27T06:14:23.729Z,2312.00
2018-09-27T06:15:23.767Z,2428.00
2018-09-27T06:16:23.740Z,2492.00
2018-09-27T06:17:23.790Z,2572.00
2018-09-27T06:18:23.748Z,2560.00
2018-09-27T06:19:23.925Z,2528.00
2018-09-27T06:20:23.760Z,2612.00
2018-09-27T06:21:23.814Z,2728.00
2018-09-27T06:22:23.906Z,2716.00
2018-09-27T06:23:23.851Z,2828.00
2018-09-27T06:24:23.849Z,2964.00
2018-09-27T06:25:23.860Z,3036.00
2018-09-27T06:26:23.854Z,3152.00
2018-09-27T06:27:23.874Z,3096.00
2018-09-27T06:28:23.906Z,2988.00
2018-09-27T06:29:23.950Z,2924.00
2018-09-27T06:30:23.873Z,2920.00
2018-09-27T06:31:23.877Z,2876.00
2018-09-27T06:32:23.900Z,3140.00
2018-09-27T06:33:23.925Z,3336.00
2018-09-27T06:34:24.060Z,3132.00
2018-09-27T06:35:23.987Z,3096.00
2018-09-27T06:36:23.971Z,2948.00
2018-09-27T06:37:23.924Z,2900.00
2018-09-27T06:38:23.997Z,2872.00
2018-09-27T06:39:23.980Z,2800.00
2018-09-27T06:40:23.993Z,2960.00
2018-09-27T06:41:24.015Z,3220.00
2018-09-27T06:42:24.026Z,3256.00
2018-09-27T06:43:24.016Z,3068.00
2018-09-27T06:44:24.331Z,3040.00
2018-09-27T06:45:24.043Z,3096.00
2018-09-27T06:46:24.043Z,3208.00
2018-09-27T06:47:24.076Z,3356.00
2018-09-27T06:48:24.113Z,3496.00
2018-09-27T06:49:24.110Z,3572.00
2018-09-27T06:50:24.171Z,3548.00
2018-09-27T06:51:24.123Z,3560.00
2018-09-27T06:52:24.123Z,3544.00
2018-09-27T06:53:24.104Z,3396.00
2018-09-27T06:54:24.141Z,3328.00
2018-09-27T06:55:24.325Z,3188.00
2018-09-27T06:56:24.127Z,3076.00
2018-09-27T06:57:24.181Z,2972.00
2018-09-27T06:58:24.214Z,3064.00
2018-09-27T06:59:24.142Z,3176.00
2018-09-27T07:00:24.362Z,3260.00
2018-09-27T07:01:24.346Z,3436.00
2018-09-27T07:02:24.333Z,3448.00
2018-09-27T07:03:24.201Z,3392.00
2018-09-27T07:04:24.204Z,3336.00
2018-09-27T07:05:24.251Z,3456.00
2018-09-27T07:06:24.213Z,3588.00
2018-09-27T07:07:24.308Z,3612.00
2018-09-27T07:08:24.293Z,3632.00
2018-09-27T07:09:24.406Z,3720.00
2018-09-27T07:10:24.256Z,3664.00
2018-09-27T07:11:24.324Z,3560.00
2018-09-27T07:12:24.491Z,3684.00
2018-09-27T07:13:24.299Z,3712.00
2018-09-27T07:14:24.359Z,3624.00
2018-09-27T07:15:24.357Z,3648.00
2018-09-27T07:16:24.324Z,3964.00
2018-09-27T07:17:24.359Z,4100.00
2018-09-27T07:18:24.365Z,4188.00
2018-09-27T07:19:27.132Z,4164.00
2018-09-27T07:20:24.611Z,4008.00
2018-09-27T07:21:24.377Z,4060.00
2018-09-27T07:22:24.391Z,4180.00
2018-09-27T07:23:24.434Z,4052.00
2018-09-27T07:24:24.476Z,4208.00
2018-09-27T07:25:24.433Z,4424.00
2018-09-27T07:26:24.481Z,4208.00
2018-09-27T07:27:24.485Z,4176.00
2018-09-27T07:28:24.450Z,4304.00
2018-09-27T07:29:24.466Z,4132.00
2018-09-27T07:30:24.514Z,4320.00
2018-09-27T07:31:24.494Z,4640.00
2018-09-27T07:32:24.518Z,4848.00
2018-09-27T07:33:24.564Z,4920.00
2018-09-27T07:34:24.547Z,4780.00
2018-09-27T07:35:24.533Z,4960.00
2018-09-27T07:36:24.531Z,4988.00
2018-09-27T07:37:24.578Z,5324.00
2018-09-27T07:38:24.740Z,6020.00
2018-09-27T07:39:24.576Z,6380.00
2018-09-27T07:40:24.651Z,6604.00
2018-09-27T07:41:24.627Z,6472.00
2018-09-27T07:42:24.701Z,6756.00
2018-09-27T07:43:24.612Z,6696.00
2018-09-27T07:44:24.734Z,6708.00
2018-09-27T07:45:24.690Z,6904.00
2018-09-27T07:46:24.635Z,6720.00
2018-09-27T07:47:24.639Z,6816.00
2018-09-27T07:48:24.679Z,6568.00
2018-09-27T07:49:24.742Z,5992.00
2018-09-27T07:50:24.729Z,5624.00
2018-09-27T07:51:24.711Z,5704.00
2018-09-27T07:52:24.700Z,5988.00
2018-09-27T07:53:24.702Z,6376.00
2018-09-27T07:54:24.814Z,6304.00
2018-09-27T07:55:24.720Z,6500.00
2018-09-27T07:56:24.831Z,6516.00
2018-09-27T07:57:24.756Z,6792.00
2018-09-27T07:58:24.761Z,6972.00
2018-09-27T07:59:24.772Z,7304.00
2018-09-27T08:00:24.792Z,7408.00
2018-09-27T08:01:24.855Z,7164.00
2018-09-27T08:02:24.802Z,7260.00
2018-09-27T08:03:24.808Z,6828.00
2018-09-27T08:04:24.800Z,6764.00
2018-09-27T08:05:24.820Z,7008.00
2018-09-27T08:06:24.865Z,6932.00
2018-09-27T08:07:24.886Z,6368.00
2018-09-27T08:08:24.940Z,6548.00
2018-09-27T08:09:24.875Z,6016.00
2018-09-27T08:10:24.932Z,5812.00
2018-09-27T08:11:24.964Z,5324.00
2018-09-27T08:12:24.903Z,4784.00
2018-09-27T08:13:24.929Z,4628.00
2018-09-27T08:14:24.951Z,4632.00
2018-09-27T08:15:24.946Z,4616.00
2018-09-27T08:16:24.979Z,4440.00
2018-09-27T08:17:25.019Z,4288.00
2018-09-27T08:18:24.950Z,4256.00
2018-09-27T08:19:24.974Z,4440.00
2018-09-27T08:20:25.132Z,4308.00
2018-09-27T08:21:25.105Z,4500.00
2018-09-27T08:22:25.033Z,4432.00
2018-09-27T08:23:25.019Z,4296.00
2018-09-27T08:24:25.047Z,4340.00
2018-09-27T08:25:25.065Z,4212.00
2018-09-27T08:26:25.089Z,3984.00
2018-09-27T08:27:25.095Z,3844.00
2018-09-27T08:28:25.092Z,3612.00
2018-09-27T08:29:25.121Z,3592.00
2018-09-27T08:30:25.138Z,3952.00
2018-09-27T08:31:25.095Z,4228.00
2018-09-27T08:32:25.227Z,4144.00
2018-09-27T08:33:25.160Z,4468.00
2018-09-27T08:34:25.157Z,4344.00
2018-09-27T08:35:25.176Z,4676.00
2018-09-27T08:36:25.199Z,4368.00
2018-09-27T08:37:25.190Z,4180.00
2018-09-27T08:38:25.272Z,4232.00
2018-09-27T08:39:25.198Z,4824.00
2018-09-27T08:40:25.266Z,4220.00
2018-09-27T08:41:25.272Z,4024.00
2018-09-27T08:42:25.259Z,4532.00
2018-09-27T08:43:25.243Z,4396.00
2018-09-27T08:44:25.298Z,3944.00
2018-09-27T08:45:25.417Z,3732.00
2018-09-27T08:46:25.284Z,3644.00
2018-09-27T08:47:25.340Z,3688.00
2018-09-27T08:48:25.296Z,3676.00
2018-09-27T08:51:56.018Z,3280.00
2018-09-27T08:52:56.045Z,3224.00
2018-09-27T08:53:56.030Z,3220.00
2018-09-27T08:54:56.033Z,3676.00
2018-09-27T08:55:56.128Z,4208.00
2018-09-27T08:56:56.078Z,4516.00
2018-09-27T08:57:56.137Z,4592.00
2018-09-27T08:58:56.086Z,4244.00
2018-09-27T08:59:56.110Z,4460.00
2018-09-27T09:00:56.106Z,4648.00
2018-09-27T09:01:56.115Z,5124.00
2018-09-27T09:02:56.121Z,5640.00
2018-09-27T09:03:56.333Z,5856.00
2018-09-27T09:04:56.135Z,5596.00
2018-09-27T09:05:56.196Z,5208.00
2018-09-27T09:06:56.207Z,5604.00
2018-09-27T09:07:56.179Z,6132.00
2018-09-27T09:08:56.189Z,6196.00
2018-09-27T09:09:56.457Z,6188.00
2018-09-27T09:10:56.230Z,6116.00
2018-09-27T09:11:56.262Z,5228.00
2018-09-27T09:12:56.255Z,4712.00
2018-09-27T09:13:56.243Z,4076.00
2018-09-27T09:14:56.295Z,3484.00
2018-09-27T09:15:56.297Z,3308.00
2018-09-27T09:16:56.283Z,3376.00
2018-09-27T09:17:56.399Z,3324.00
2018-09-27T09:18:56.324Z,3320.00
2018-09-27T09:19:56.349Z,3360.00
2018-09-27T09:20:56.372Z,3864.00
2018-09-27T09:21:56.340Z,4240.00
2018-09-27T09:22:56.346Z,3792.00
2018-09-27T09:23:56.462Z,3124.00
2018-09-27T09:24:56.381Z,4240.00
2018-09-27T09:25:56.409Z,5124.00
2018-09-27T09:26:56.431Z,4776.00
2018-09-27T09:27:56.398Z,4224.00
2018-09-27T09:28:56.938Z,3428.00
2018-09-27T09:29:56.434Z,2808.00
2018-09-27T09:30:56.424Z,2940.00
2018-09-27T09:31:56.440Z,2896.00
2018-09-27T09:32:56.467Z,2568.00
2018-09-27T09:33:56.525Z,2500.00
2018-09-27T09:34:56.481Z,2468.00
2018-09-27T09:35:56.494Z,2460.00
2018-09-27T09:36:56.499Z,2480.00
2018-09-27T09:37:56.502Z,2480.00
2018-09-27T09:38:56.606Z,2472.00
2018-09-27T09:39:56.530Z,2456.00
2018-09-27T09:40:56.528Z,2448.00
2018-09-27T09:41:56.534Z,2452.00
2018-09-27T09:42:56.590Z,2460.00
2018-09-27T09:43:56.590Z,2460.00
2018-09-27T09:44:56.593Z,2460.00
2018-09-27T09:45:56.665Z,2452.00
2018-09-27T09:46:56.591Z,2464.00
2018-09-27T09:47:56.625Z,2464.00
2018-09-27T09:48:56.618Z,2468.00
2018-09-27T09:49:56.674Z,2460.00
2018-09-27T09:50:56.709Z,2456.00
2018-09-27T09:51:56.646Z,2452.00
2018-09-27T09:52:56.685Z,2452.00
2018-09-27T09:53:56.659Z,2448.00
2018-09-27T09:54:56.726Z,2452.00
2018-09-27T09:55:56.690Z,2460.00
2018-09-27T09:56:56.845Z,2460.00
2018-09-27T09:57:56.746Z,2448.00
2018-09-27T09:58:56.748Z,2448.00
2018-09-27T09:59:56.744Z,2448.00
2018-09-27T10:00:56.758Z,2444.00
2018-09-27T10:01:56.821Z,2436.00
2018-09-27T10:02:56.776Z,2432.00
2018-09-27T10:03:56.793Z,2460.00
2018-09-27T10:04:56.796Z,2468.00
2018-09-27T10:05:56.800Z,2476.00
2018-09-27T10:06:56.986Z,2480.00
2018-09-27T10:07:56.808Z,2484.00
2018-09-27T10:08:56.906Z,2488.00
2018-09-27T10:09:56.880Z,2492.00
2018-09-27T10:10:56.879Z,2488.00
2018-09-27T10:11:56.965Z,2496.00
2018-09-27T10:12:56.924Z,2508.00
2018-09-27T10:13:56.896Z,2516.00
2018-09-27T10:14:56.908Z,2520.00
2018-09-27T10:15:56.931Z,2516.00
2018-09-27T10:16:56.919Z,2536.00
2018-09-27T10:17:56.920Z,2704.00
2018-09-27T10:18:56.994Z,2904.00
2018-09-27T10:19:56.933Z,2752.00
2018-09-27T10:20:56.954Z,2632.00
2018-09-27T10:21:57.062Z,2620.00
2018-09-27T10:22:56.966Z,2712.00
2018-09-27T10:23:57.043Z,2876.00
2018-09-27T10:24:56.984Z,2952.00
2018-09-27T10:25:57.024Z,2880.00
2018-09-27T10:26:57.027Z,2800.00
2018-09-27T10:27:57.038Z,2824.00
2018-09-27T10:28:57.044Z,2852.00
2018-09-27T10:29:57.270Z,3036.00
2018-09-27T10:30:57.060Z,3452.00
2018-09-27T10:31:57.061Z,3296.00
2018-09-27T10:32:57.083Z,2848.00
2018-09-27T10:33:57.079Z,2932.00
2018-09-27T10:34:57.168Z,3196.00
2018-09-27T10:35:57.159Z,3444.00
2018-09-27T10:36:57.121Z,3436.00
2018-09-27T10:37:57.130Z,3376.00
2018-09-27T10:38:57.232Z,3028.00
2018-09-27T10:39:57.186Z,2940.00
2018-09-27T10:40:57.192Z,2916.00
2018-09-27T10:41:57.178Z,2852.00
2018-09-27T10:42:57.199Z,2848.00
2018-09-27T10:43:57.234Z,2940.00
2018-09-27T10:44:57.273Z,3036.00
2018-09-27T10:45:57.238Z,3172.00
2018-09-27T10:46:57.276Z,2952.00
2018-09-27T10:47:57.282Z,2748.00
2018-09-27T10:48:57.288Z,2820.00
2018-09-27T10:49:57.265Z,3208.00
2018-09-27T10:50:57.259Z,3740.00
2018-09-27T10:51:57.387Z,3544.00
2018-09-27T10:52:57.318Z,2924.00
2018-09-27T10:53:57.302Z,2668.00
2018-09-27T10:54:57.364Z,2604.00
2018-09-27T10:55:57.333Z,2608.00
2018-09-27T10:56:57.397Z,2636.00
2018-09-27T10:57:57.370Z,2624.00
2018-09-27T10:58:57.432Z,2596.00
2018-09-27T10:59:57.384Z,2564.00
2018-09-27T11:00:57.396Z,2568.00
2018-09-27T11:01:57.381Z,2540.00
2018-09-27T11:02:57.545Z,2516.00
2018-09-27T11:03:57.435Z,2536.00
2018-09-27T11:04:57.414Z,2536.00
2018-09-27T11:05:57.477Z,2536.00
2018-09-27T11:06:57.443Z,2556.00
2018-09-27T11:07:57.496Z,2580.00
2018-09-27T11:08:57.446Z,2604.00
2018-09-27T11:09:57.533Z,2636.00
2018-09-27T11:10:57.581Z,2784.00
2018-09-27T11:11:57.526Z,2888.00
2018-09-27T11:12:57.529Z,2876.00
2018-09-27T11:13:57.549Z,2824.00
2018-09-27T11:14:57.575Z,3220.00
2018-09-27T11:15:57.582Z,3252.00
2018-09-27T11:16:57.593Z,2672.00
2018-09-27T11:17:57.574Z,2648.00
2018-09-27T11:18:57.636Z,2516.00
2018-09-27T11:19:57.621Z,2468.00
2018-09-27T11:20:57.598Z,2472.00
2018-09-27T11:21:57.660Z,2456.00
2018-09-27T11:22:58.228Z,2444.00
2018-09-27T11:23:57.706Z,2444.00
2018-09-27T11:24:57.621Z,2452.00
2018-09-27T11:25:57.673Z,2500.00
2018-09-27T11:26:57.677Z,2472.00
2018-09-27T11:27:57.718Z,2452.00
2018-09-27T11:28:57.750Z,2444.00
2018-09-27T11:29:57.819Z,2440.00
2018-09-27T11:30:57.714Z,2440.00
2018-09-27T11:31:57.711Z,2424.00
2018-09-27T11:32:57.768Z,2432.00
2018-09-27T11:33:57.777Z,2440.00
2018-09-27T11:34:57.788Z,2440.00
2018-09-27T11:35:57.764Z,2452.00
2018-09-27T11:36:57.787Z,2452.00
2018-09-27T11:37:57.809Z,2456.00
2018-09-27T11:38:58.005Z,2448.00
2018-09-27T11:39:57.821Z,2448.00
2018-09-27T11:40:57.867Z,2456.00
2018-09-27T11:41:57.822Z,2528.00
2018-09-27T11:42:57.904Z,2704.00
2018-09-27T11:43:57.920Z,2624.00
2018-09-27T11:44:57.869Z,2556.00
2018-09-27T11:45:57.858Z,2440.00
2018-09-27T11:46:57.902Z,2428.00
2018-09-27T11:47:57.934Z,2444.00
2018-09-27T11:48:58.007Z,2440.00
2018-09-27T11:49:58.070Z,2448.00
2018-09-27T11:50:57.937Z,2488.00
2018-09-27T11:51:57.961Z,2496.00
2018-09-27T11:52:57.977Z,2512.00
2018-09-27T11:53:58.020Z,2512.00
2018-09-27T11:54:58.020Z,2460.00
2018-09-27T11:55:58.047Z,2384.00
2018-09-27T11:56:58.008Z,2372.00
2018-09-27T11:57:58.052Z,2340.00
2018-09-27T11:58:58.104Z,2328.00
2018-09-27T11:59:58.056Z,2392.00
2018-09-27T12:00:58.091Z,2416.00
2018-09-27T12:01:58.077Z,2436.00
2018-09-27T12:02:58.148Z,2460.00
2018-09-27T12:03:58.073Z,2572.00
2018-09-27T12:04:58.251Z,2776.00
2018-09-27T12:05:58.220Z,2820.00
2018-09-27T12:06:58.106Z,2916.00
2018-09-27T12:07:58.152Z,3132.00
2018-09-27T12:08:58.119Z,3132.00
2018-09-27T12:09:58.120Z,2856.00
2018-09-27T12:10:58.192Z,2644.00
2018-09-27T12:11:58.234Z,2488.00
2018-09-27T12:12:58.256Z,2500.00
2018-09-27T12:13:58.202Z,2504.00
2018-09-27T12:14:58.204Z,2564.00
2018-09-27T12:15:58.214Z,2736.00
2018-09-27T12:16:58.224Z,2828.00
2018-09-27T12:17:58.280Z,2792.00
2018-09-27T12:18:58.243Z,2808.00
2018-09-27T12:19:58.282Z,2944.00
2018-09-27T12:20:58.298Z,2972.00
2018-09-27T12:21:58.259Z,3048.00
2018-09-27T12:22:58.334Z,3228.00
2018-09-27T12:23:58.326Z,3468.00
2018-09-27T12:24:58.347Z,3408.00
2018-09-27T12:25:58.334Z,3216.00
2018-09-27T12:26:58.349Z,3172.00
2018-09-27T12:27:58.353Z,3224.00
2018-09-27T12:28:58.354Z,3164.00
2018-09-27T12:29:59.246Z,3088.00
2018-09-27T12:30:58.368Z,2968.00
2018-09-27T12:31:58.391Z,2908.00
2018-09-27T12:32:58.416Z,2864.00
2018-09-27T12:33:58.471Z,2716.00
2018-09-27T12:34:58.442Z,2816.00
2018-09-27T12:35:58.441Z,3428.00
2018-09-27T12:36:58.444Z,4044.00
2018-09-27T12:37:58.478Z,4016.00
2018-09-27T12:38:58.505Z,3420.00
2018-09-27T12:39:58.501Z,3628.00
2018-09-27T12:40:58.521Z,4224.00
2018-09-27T12:41:58.659Z,4104.00
2018-09-27T12:42:58.630Z,3568.00
2018-09-27T12:43:58.521Z,3356.00
2018-09-27T12:44:58.613Z,3468.00
2018-09-27T12:45:58.593Z,3408.00
2018-09-27T12:46:58.623Z,3408.00
2018-09-27T12:47:58.617Z,3240.00
2018-09-27T12:48:58.678Z,3012.00
2018-09-27T12:49:58.609Z,2920.00
2018-09-27T12:50:58.620Z,2904.00
2018-09-27T12:51:58.846Z,2796.00
2018-09-27T12:52:58.767Z,2816.00
2018-09-27T12:53:58.649Z,3200.00
2018-09-27T12:54:58.656Z,3436.00
2018-09-27T12:55:58.734Z,3164.00
2018-09-27T12:56:58.706Z,2860.00
2018-09-27T12:57:58.694Z,2764.00
2018-09-27T12:58:58.684Z,2796.00
2018-09-27T12:59:59.424Z,2948.00
2018-09-27T13:00:58.739Z,2800.00
2018-09-27T13:01:58.850Z,2668.00
2018-09-27T13:02:58.875Z,2572.00
2018-09-27T13:03:58.812Z,2572.00
2018-09-27T13:04:58.787Z,2664.00
2018-09-27T13:05:58.791Z,2720.00
2018-09-27T13:06:58.807Z,2708.00
2018-09-27T13:07:58.847Z,2640.00
2018-09-27T13:08:58.874Z,2584.00
2018-09-27T13:09:59.061Z,2544.00
2018-09-27T13:10:58.830Z,2540.00
2018-09-27T13:11:58.888Z,2552.00
2018-09-27T13:12:58.925Z,2544.00
2018-09-27T13:13:58.882Z,2524.00
2018-09-27T13:14:58.911Z,2468.00
2018-09-27T13:15:58.949Z,2436.00
2018-09-27T13:16:58.915Z,2420.00
2018-09-27T13:17:58.921Z,2404.00
2018-09-27T13:18:58.930Z,2376.00
2018-09-27T13:19:59.107Z,2364.00
2018-09-27T13:20:58.984Z,2356.00
2018-09-27T13:21:58.992Z,2356.00
2018-09-27T13:22:58.991Z,2348.00
2018-09-27T13:23:58.969Z,2348.00
2018-09-27T13:24:59.183Z,2352.00
2018-09-27T13:25:59.038Z,2340.00
2018-09-27T13:26:59.112Z,2328.00
2018-09-27T13:27:59.005Z,2332.00
2018-09-27T13:28:59.081Z,2344.00
2018-09-27T13:29:59.073Z,2352.00
2018-09-27T13:31:00.065Z,2336.00
2018-09-27T13:31:59.177Z,2336.00
2018-09-27T13:32:59.129Z,2328.00
2018-09-27T13:33:59.178Z,2320.00
2018-09-27T13:34:59.098Z,2316.00
2018-09-27T13:35:59.155Z,2312.00
2018-09-27T13:36:59.167Z,2312.00
2018-09-27T13:37:59.171Z,2308.00
2018-09-27T13:38:59.220Z,2312.00
2018-09-27T13:39:59.298Z,2316.00
2018-09-27T13:40:59.171Z,2324.00
2018-09-27T13:41:59.208Z,2320.00
2018-09-27T13:42:59.214Z,2312.00
2018-09-27T13:43:59.348Z,2308.00
2018-09-27T13:44:59.286Z,2304.00
2018-09-27T13:45:59.271Z,2304.00
2018-09-27T13:46:59.261Z,2304.00
2018-09-27T13:47:59.241Z,2300.00
2018-09-27T13:48:59.388Z,2304.00
2018-09-27T13:49:59.258Z,2300.00
2018-09-27T13:50:59.417Z,2296.00
2018-09-27T13:51:59.325Z,2284.00
2018-09-27T13:52:59.326Z,2288.00
2018-09-27T13:53:59.317Z,2292.00
2018-09-27T13:54:59.335Z,2292.00
2018-09-27T13:55:59.390Z,2292.00
2018-09-27T13:56:59.451Z,2292.00
2018-09-27T13:57:59.368Z,2280.00
2018-09-27T13:58:59.359Z,2284.00
2018-09-27T13:59:59.380Z,2284.00
2018-09-27T14:00:59.440Z,2296.00
2018-09-27T14:01:59.470Z,2312.00
2018-09-27T14:02:59.493Z,2312.00
2018-09-27T14:03:59.447Z,2312.00
2018-09-27T14:04:59.476Z,2320.00
2018-09-27T14:05:59.452Z,2324.00
2018-09-27T14:06:59.455Z,2316.00
2018-09-27T14:07:59.547Z,2300.00
2018-09-27T14:08:59.529Z,2288.00
2018-09-27T14:09:59.484Z,2292.00
2018-09-27T14:10:59.505Z,2292.00
2018-09-27T14:11:59.549Z,2292.00
2018-09-27T14:12:59.593Z,2284.00
2018-09-27T14:13:59.518Z,2276.00
2018-09-27T14:14:59.541Z,2280.00
2018-09-27T14:15:59.677Z,2288.00
2018-09-27T14:16:59.623Z,2296.00
2018-09-27T14:17:59.621Z,2292.00
2018-09-27T14:18:59.596Z,2288.00
2018-09-27T14:19:59.677Z,2272.00
2018-09-27T14:20:59.608Z,2260.00
2018-09-27T14:21:59.634Z,2256.00
2018-09-27T14:22:59.657Z,2252.00
2018-09-27T14:23:59.657Z,2256.00
2018-09-27T14:24:59.763Z,2256.00
2018-09-27T14:25:59.675Z,2256.00
2018-09-27T14:26:59.709Z,2240.00
2018-09-27T14:27:59.715Z,2224.00
2018-09-27T14:28:59.721Z,2208.00
2018-09-27T14:29:59.744Z,2204.00
2018-09-27T14:30:59.889Z,2200.00
2018-09-27T14:31:59.761Z,2192.00
2018-09-27T14:32:59.805Z,2192.00
2018-09-27T14:33:59.803Z,2184.00
2018-09-27T14:34:59.831Z,2176.00
2018-09-27T14:35:59.792Z,2184.00
2018-09-27T14:36:59.814Z,2192.00
2018-09-27T14:37:59.858Z,2188.00
2018-09-27T14:38:59.837Z,2192.00
2018-09-27T14:39:59.862Z,2196.00
2018-09-27T14:40:59.905Z,2176.00
2018-09-27T14:41:59.922Z,2168.00
2018-09-27T14:42:59.885Z,2168.00
2018-09-27T14:43:59.882Z,2164.00
2018-09-27T14:44:59.892Z,2164.00
2018-09-27T14:45:59.899Z,2168.00
2018-09-27T14:46:59.917Z,2172.00
2018-09-27T14:48:00.125Z,2172.00
2018-09-27T14:48:59.939Z,2160.00
2018-09-27T14:49:59.998Z,2152.00
2018-09-27T14:50:59.962Z,2152.00
2018-09-27T14:51:59.973Z,2152.00
2018-09-27T14:53:00.016Z,2136.00
2018-09-27T14:53:59.981Z,2144.00
2018-09-27T14:55:00.019Z,2144.00
2018-09-27T14:56:00.035Z,2136.00
2018-09-27T14:57:00.047Z,2128.00
2018-09-27T14:58:00.041Z,2128.00
2018-09-27T14:59:00.044Z,2132.00
2018-09-27T15:00:00.075Z,2136.00
2018-09-27T15:01:00.067Z,2136.00
2018-09-27T15:02:00.309Z,2132.00
2018-09-27T15:03:00.103Z,2124.00
2018-09-27T15:04:00.175Z,2120.00
2018-09-27T15:05:00.133Z,2112.00
2018-09-27T15:06:00.161Z,2104.00
2018-09-27T15:07:00.175Z,2088.00
2018-09-27T15:08:00.154Z,2084.00
2018-09-27T15:09:00.212Z,2072.00
2018-09-27T15:10:00.250Z,2076.00
2018-09-27T15:11:00.170Z,2072.00
2018-09-27T15:12:00.261Z,2068.00
2018-09-27T15:13:00.235Z,2064.00
2018-09-27T15:14:00.260Z,2056.00
2018-09-27T15:15:00.252Z,2056.00
2018-09-27T15:16:00.322Z,2052.00
2018-09-27T15:17:00.271Z,2048.00
2018-09-27T15:18:00.360Z,2040.00
2018-09-27T15:19:00.282Z,2032.00
2018-09-27T15:20:00.292Z,2024.00
2018-09-27T15:21:00.346Z,2012.00
2018-09-27T15:22:00.485Z,2008.00
2018-09-27T15:23:00.324Z,2004.00
2018-09-27T15:24:00.357Z,2004.00
2018-09-27T15:25:00.343Z,2004.00
2018-09-27T15:26:00.379Z,2000.00
2018-09-27T15:27:00.382Z,1996.00
2018-09-27T15:28:01.362Z,1984.00
2018-09-27T15:29:00.393Z,1980.00
2018-09-27T15:30:00.405Z,1980.00
2018-09-27T15:31:00.439Z,1976.00
2018-09-27T15:32:00.480Z,1956.00
2018-09-27T15:33:00.477Z,1940.00
2018-09-27T15:34:00.487Z,1928.00
2018-09-27T15:35:00.462Z,1908.00
2018-09-27T15:36:00.464Z,1896.00
2018-09-27T15:37:00.523Z,1888.00
2018-09-27T15:38:00.536Z,1880.00
2018-09-27T15:39:00.541Z,1872.00
2018-09-27T15:40:00.554Z,1868.00
2018-09-27T15:41:00.523Z,1860.00
2018-09-27T15:42:00.542Z,1848.00
2018-09-27T15:43:00.570Z,1828.00
2018-09-27T15:44:00.634Z,1820.00
2018-09-27T15:45:00.684Z,1808.00
2018-09-27T15:46:00.624Z,1800.00
2018-09-27T15:47:00.601Z,1792.00
2018-09-27T15:48:00.652Z,1776.00
2018-09-27T15:49:00.646Z,1764.00
2018-09-27T15:50:00.673Z,1748.00
2018-09-27T15:51:00.657Z,1736.00
2018-09-27T15:52:00.671Z,1724.00
2018-09-27T15:53:00.681Z,1712.00
2018-09-27T15:54:00.782Z,1700.00
2018-09-27T15:55:00.689Z,1684.00
2018-09-27T15:56:00.728Z,1672.00
2018-09-27T15:57:00.709Z,1652.00
2018-09-27T15:58:00.735Z,1624.00
2018-09-27T15:59:00.787Z,1608.00
2018-09-27T16:00:00.989Z,1588.00
2018-09-27T16:01:00.801Z,1572.00
2018-09-27T16:02:00.821Z,1556.00
2018-09-27T16:03:00.781Z,1532.00
2018-09-27T16:04:00.826Z,1516.00
2018-09-27T16:05:00.801Z,1492.00
2018-09-27T16:06:00.870Z,1476.00
2018-09-27T16:07:00.821Z,1452.00
2018-09-27T16:08:00.856Z,1432.00
2018-09-27T16:09:00.866Z,1412.00
2018-09-27T16:10:00.956Z,1392.00
2018-09-27T16:11:00.887Z,1372.00
2018-09-27T16:12:00.948Z,1348.00
2018-09-27T16:13:00.952Z,1328.00
2018-09-27T16:14:00.906Z,1304.00
2018-09-27T16:15:00.907Z,1280.00
2018-09-27T16:16:00.941Z,1256.00
2018-09-27T16:17:00.961Z,1232.00
2018-09-27T16:18:00.978Z,1208.00
2018-09-27T16:19:00.989Z,1184.00
2018-09-27T16:20:00.999Z,1160.00
2018-09-27T16:21:01.001Z,1128.00
2018-09-27T16:22:01.101Z,1100.00
2018-09-27T16:23:01.057Z,1072.00
2018-09-27T16:24:01.027Z,1036.00
2018-09-27T16:25:01.035Z,1004.00
2018-09-27T16:26:01.033Z,968.00
2018-09-27T16:27:01.085Z,940.00
2018-09-27T16:28:01.136Z,916.00
2018-09-27T16:29:01.082Z,888.00
2018-09-27T16:30:01.108Z,856.00
2018-09-27T16:31:01.115Z,824.00
2018-09-27T16:32:01.135Z,792.00
2018-09-27T16:33:01.160Z,760.00
2018-09-27T16:34:01.144Z,728.00
2018-09-27T16:35:01.184Z,696.00
2018-09-27T16:36:01.149Z,664.00
2018-09-27T16:37:01.204Z,636.00
2018-09-27T16:38:01.185Z,604.00
2018-09-27T16:39:01.220Z,576.00
2018-09-27T16:40:01.242Z,544.00
2018-09-27T16:41:01.233Z,516.00
2018-09-27T16:42:01.257Z,484.00
2018-09-27T16:43:01.270Z,460.00
2018-09-27T16:44:01.271Z,436.00
2018-09-27T16:45:01.285Z,408.00
2018-09-27T16:46:01.309Z,388.00
2018-09-27T16:47:01.290Z,368.00
2018-09-27T16:48:01.300Z,348.00
2018-09-27T16:49:01.335Z,328.00
2018-09-27T16:50:01.341Z,308.00
2018-09-27T16:51:01.363Z,288.00
2018-09-27T16:52:01.366Z,260.00
2018-09-27T16:53:01.366Z,240.00
2018-09-27T16:54:01.418Z,216.00
2018-09-27T16:55:01.403Z,192.00
2018-09-27T16:56:01.393Z,180.00
2018-09-27T16:57:01.618Z,140.00
2018-09-27T16:58:01.409Z,136.00
2018-09-27T16:59:01.407Z,128.00
2018-09-27T17:00:01.422Z,112.00
2018-09-27T17:01:01.469Z,100.00
2018-09-27T17:02:01.473Z,92.00
2018-09-27T17:03:01.476Z,76.00
2018-09-27T17:04:01.488Z,68.00
2018-09-27T17:05:01.529Z,60.00
2018-09-27T17:06:01.505Z,52.00
2018-09-27T17:07:01.528Z,48.00
2018-09-27T17:08:01.574Z,40.00
2018-09-27T17:09:01.535Z,32.00
2018-09-27T17:10:01.588Z,28.00
2018-09-27T17:11:01.723Z,24.00
2018-09-27T17:12:01.603Z,24.00
2018-09-27T17:13:01.579Z,20.00
2018-09-27T17:14:01.614Z,16.00
2018-09-27T17:15:01.596Z,12.00
2018-09-27T17:16:01.639Z,12.00
2018-09-27T17:17:01.685Z,8.00
2018-09-27T17:18:01.656Z,8.00
2018-09-27T17:19:01.719Z,4.00
2018-09-27T17:20:01.657Z,4.00
2018-09-27T17:21:01.651Z,4.00
2018-09-27T17:22:01.748Z,4.00
2018-09-27T17:23:01.732Z,4.00
2018-09-27T17:24:01.690Z,0.00
2018-09-27T17:25:01.727Z,4.00
2018-09-27T17:26:01.718Z,0.00
2018-09-27T17:27:01.777Z,0.00
2018-09-27T17:28:01.760Z,0.00
2018-09-27T17:29:01.845Z,0.00
2018-09-27T17:30:01.795Z,0.00
2018-09-27T17:31:01.780Z,0.00
2018-09-27T17:32:01.792Z,0.00
2018-09-27T17:33:01.827Z,0.00
2018-09-27T17:34:01.840Z,0.00
2018-09-27T17:35:01.869Z,0.00
2018-09-27T17:36:01.855Z,0.00
2018-09-27T17:37:01.828Z,0.00
2018-09-27T17:38:01.871Z,0.00
2018-09-27T17:39:01.917Z,0.00
2018-09-27T17:40:02.059Z,0.00
2018-09-27T17:41:01.897Z,0.00
2018-09-27T17:42:01.900Z,0.00
2018-09-27T17:43:01.900Z,0.00
2018-09-27T17:44:01.958Z,0.00
2018-09-27T17:45:01.986Z,0.00
2018-09-27T17:46:02.007Z,0.00
2018-09-27T17:47:02.049Z,0.00